sensor_id;sensor_type;location;lat;lon;timestamp;pressure;altitude;pressure_sealevel;temperature;humidity
39435;BME280;30098;51.880;-0.518;2022-08-06T00:00:52;101850.28;;;22.68;34.30
39435;BME280;30098;51.880;-0.518;2022-08-06T00:03:18;101850.28;;;22.68;34.24
39435;BME280;30098;51.880;-0.518;2022-08-06T00:05:43;101847.81;;;22.67;34.28
39435;BME280;30098;51.880;-0.518;2022-08-06T00:08:09;101853.31;;;22.67;34.31
39435;BME280;30098;51.880;-0.518;2022-08-06T00:10:35;101851.97;;;22.64;34.40
39435;BME280;30098;51.880;-0.518;2022-08-06T00:13:00;101860.75;;;22.66;34.27
39435;BME280;30098;51.880;-0.518;2022-08-06T00:15:26;101827.53;;;22.49;34.42
39435;BME280;30098;51.880;-0.518;2022-08-06T00:17:52;101855.56;;;22.65;34.38
39435;BME280;30098;51.880;-0.518;2022-08-06T00:20:18;101823.44;;;22.46;34.28
39435;BME280;30098;51.880;-0.518;2022-08-06T00:22:43;101856.69;;;22.64;34.48
39435;BME280;30098;51.880;-0.518;2022-08-06T00:25:09;101824.56;;;22.45;34.45
39435;BME280;30098;51.880;-0.518;2022-08-06T00:27:38;101851.47;;;22.62;34.51
39435;BME280;30098;51.880;-0.518;2022-08-06T00:30:08;101819.38;;;22.44;34.41
39435;BME280;30098;51.880;-0.518;2022-08-06T00:32:34;101838.81;;;22.47;34.52
39435;BME280;30098;51.880;-0.518;2022-08-06T00:34:59;101858.91;;;22.62;34.55
39435;BME280;30098;51.880;-0.518;2022-08-06T00:37:25;101857.56;;;22.59;34.59
39435;BME280;30098;51.880;-0.518;2022-08-06T00:39:54;101858.09;;;22.61;34.54
39435;BME280;30098;51.880;-0.518;2022-08-06T00:42:20;101857.25;;;22.61;34.56
39435;BME280;30098;51.880;-0.518;2022-08-06T00:44:45;101852.88;;;22.60;34.64
39435;BME280;30098;51.880;-0.518;2022-08-06T00:47:11;101865.50;;;22.61;34.61
39435;BME280;30098;51.880;-0.518;2022-08-06T00:49:36;101857.56;;;22.59;34.89
39435;BME280;30098;51.880;-0.518;2022-08-06T00:52:02;101867.72;;;22.59;34.53
39435;BME280;30098;51.880;-0.518;2022-08-06T00:54:28;101872.09;;;22.60;34.61
39435;BME280;30098;51.880;-0.518;2022-08-06T00:56:53;101859.50;;;22.59;34.70
39435;BME280;30098;51.880;-0.518;2022-08-06T00:59:19;101858.69;;;22.58;34.65
39435;BME280;30098;51.880;-0.518;2022-08-06T01:01:45;101860.63;;;22.58;34.89
39435;BME280;30098;51.880;-0.518;2022-08-06T01:04:10;101859.78;;;22.57;34.71
39435;BME280;30098;51.880;-0.518;2022-08-06T01:06:36;101867.22;;;22.57;34.73
39435;BME280;30098;51.880;-0.518;2022-08-06T01:09:01;101851.44;;;22.48;34.79
39435;BME280;30098;51.880;-0.518;2022-08-06T01:11:27;101869.16;;;22.56;34.69
39435;BME280;30098;51.880;-0.518;2022-08-06T01:13:52;101873.84;;;22.56;34.68
39435;BME280;30098;51.880;-0.518;2022-08-06T01:16:24;101873.84;;;22.56;34.74
39435;BME280;30098;51.880;-0.518;2022-08-06T01:29:51;101876.06;;;22.53;34.80
39435;BME280;30098;51.880;-0.518;2022-08-06T01:32:26;101876.06;;;22.53;34.87
39435;BME280;30098;51.880;-0.518;2022-08-06T01:35:16;101872.28;;;22.49;34.88
39435;BME280;30098;51.880;-0.518;2022-08-06T01:40:29;101873.94;;;22.50;34.83
39435;BME280;30098;51.880;-0.518;2022-08-06T01:42:56;101881.03;;;22.51;34.95
39435;BME280;30098;51.880;-0.518;2022-08-06T01:45:25;101878.28;;;22.51;34.87
39435;BME280;30098;51.880;-0.518;2022-08-06T01:47:55;101878.59;;;22.50;35.03
39435;BME280;30098;51.880;-0.518;2022-08-06T01:50:28;101888.78;;;22.49;34.78
39435;BME280;30098;51.880;-0.518;2022-08-06T01:52:57;101877.78;;;22.49;34.81
39435;BME280;30098;51.880;-0.518;2022-08-06T01:55:24;101887.13;;;22.48;35.08
39435;BME280;30098;51.880;-0.518;2022-08-06T01:57:55;101885.50;;;22.47;35.01
39435;BME280;30098;51.880;-0.518;2022-08-06T02:00:23;101858.84;;;22.29;35.02
39435;BME280;30098;51.880;-0.518;2022-08-06T02:02:49;101881.69;;;22.43;35.11
39435;BME280;30098;51.880;-0.518;2022-08-06T02:05:18;101865.97;;;22.30;35.00
39435;BME280;30098;51.880;-0.518;2022-08-06T02:07:48;101868.66;;;22.35;34.87
39435;BME280;30098;51.880;-0.518;2022-08-06T02:10:15;101890.19;;;22.47;34.99
39435;BME280;30098;51.880;-0.518;2022-08-06T02:12:44;101889.34;;;22.46;35.15
39435;BME280;30098;51.880;-0.518;2022-08-06T02:15:18;101884.69;;;22.47;35.05
39435;BME280;30098;51.880;-0.518;2022-08-06T02:17:50;101885.81;;;22.46;35.00
39435;BME280;30098;51.880;-0.518;2022-08-06T02:20:19;101879.56;;;22.40;35.10
39435;BME280;30098;51.880;-0.518;2022-08-06T02:22:46;101798.50;;;21.91;34.92
39435;BME280;30098;51.880;-0.518;2022-08-06T02:25:13;101884.97;;;22.45;35.17
39435;BME280;30098;51.880;-0.518;2022-08-06T02:27:44;101898.72;;;22.45;35.22
39435;BME280;30098;51.880;-0.518;2022-08-06T02:30:12;101870.56;;;22.34;35.34
39435;BME280;30098;51.880;-0.518;2022-08-06T02:32:39;101892.41;;;22.45;35.13
39435;BME280;30098;51.880;-0.518;2022-08-06T02:35:05;101900.66;;;22.45;35.24
39435;BME280;30098;51.880;-0.518;2022-08-06T02:37:37;101893.53;;;22.44;35.19
39435;BME280;30098;51.880;-0.518;2022-08-06T02:40:16;101878.56;;;22.31;35.19
39435;BME280;30098;51.880;-0.518;2022-08-06T02:42:47;101895.44;;;22.43;35.06
39435;BME280;30098;51.880;-0.518;2022-08-06T02:45:19;101900.91;;;22.43;35.13
39435;BME280;30098;51.880;-0.518;2022-08-06T02:47:57;101896.03;;;22.40;35.20
39435;BME280;30098;51.880;-0.518;2022-08-06T02:50:33;101896.56;;;22.42;35.15
39435;BME280;30098;51.880;-0.518;2022-08-06T02:53:02;101898.47;;;22.42;35.03
39435;BME280;30098;51.880;-0.518;2022-08-06T02:55:31;101894.47;;;22.34;35.31
39435;BME280;30098;51.880;-0.518;2022-08-06T02:58:04;101899.59;;;22.41;35.21
39435;BME280;30098;51.880;-0.518;2022-08-06T03:00:35;101898.53;;;22.36;35.35
39435;BME280;30098;51.880;-0.518;2022-08-06T03:03:03;101904.28;;;22.40;35.24
39435;BME280;30098;51.880;-0.518;2022-08-06T03:05:30;101902.34;;;22.41;35.22
39435;BME280;30098;51.880;-0.518;2022-08-06T03:07:57;101887.91;;;22.30;35.25
39435;BME280;30098;51.880;-0.518;2022-08-06T03:10:25;101890.88;;;22.33;35.46
39435;BME280;30098;51.880;-0.518;2022-08-06T03:12:53;101873.75;;;22.23;35.31
39435;BME280;30098;51.880;-0.518;2022-08-06T03:15:20;101900.72;;;22.40;35.37
39435;BME280;30098;51.880;-0.518;2022-08-06T03:17:49;101810.69;;;21.84;35.25
39435;BME280;30098;51.880;-0.518;2022-08-06T03:20:19;101897.16;;;22.39;35.35
39435;BME280;30098;51.880;-0.518;2022-08-06T03:22:50;101899.09;;;22.39;35.47
39435;BME280;30098;51.880;-0.518;2022-08-06T03:25:16;101899.91;;;22.39;35.30
39435;BME280;30098;51.880;-0.518;2022-08-06T03:27:43;101887.34;;;22.33;35.34
39435;BME280;30098;51.880;-0.518;2022-08-06T03:30:12;101892.22;;;22.36;35.55
39435;BME280;30098;51.880;-0.518;2022-08-06T03:32:39;101880.34;;;22.21;35.21
39435;BME280;30098;51.880;-0.518;2022-08-06T03:35:05;101904.03;;;22.36;35.40
39435;BME280;30098;51.880;-0.518;2022-08-06T03:37:32;101879.03;;;22.19;35.43
39435;BME280;30098;51.880;-0.518;2022-08-06T03:39:59;101878.75;;;22.20;35.31
39435;BME280;30098;51.880;-0.518;2022-08-06T03:42:26;101907.09;;;22.35;35.31
39435;BME280;30098;51.880;-0.518;2022-08-06T03:44:52;101909.84;;;22.35;35.34
39435;BME280;30098;51.880;-0.518;2022-08-06T03:47:25;101909.84;;;22.35;35.40
39435;BME280;30098;51.880;-0.518;2022-08-06T03:50:04;101909.00;;;22.34;35.54
39435;BME280;30098;51.880;-0.518;2022-08-06T03:52:32;101905.44;;;22.34;35.41
39435;BME280;30098;51.880;-0.518;2022-08-06T03:55:03;101910.09;;;22.33;35.47
39435;BME280;30098;51.880;-0.518;2022-08-06T03:57:35;101907.34;;;22.33;35.57
39435;BME280;30098;51.880;-0.518;2022-08-06T04:00:04;101908.78;;;22.31;35.43
39435;BME280;30098;51.880;-0.518;2022-08-06T04:02:33;101912.06;;;22.33;35.64
39435;BME280;30098;51.880;-0.518;2022-08-06T04:05:02;101903.81;;;22.33;35.35
39435;BME280;30098;51.880;-0.518;2022-08-06T04:07:28;101909.88;;;22.30;35.62
39435;BME280;30098;51.880;-0.518;2022-08-06T04:09:55;101907.66;;;22.32;35.56
39435;BME280;30098;51.880;-0.518;2022-08-06T04:12:21;101903.28;;;22.31;35.54
39435;BME280;30098;51.880;-0.518;2022-08-06T04:14:48;101895.94;;;22.26;35.67
39435;BME280;30098;51.880;-0.518;2022-08-06T04:17:14;101904.13;;;22.31;35.48
39435;BME280;30098;51.880;-0.518;2022-08-06T04:19:42;101904.69;;;22.28;35.61
39435;BME280;30098;51.880;-0.518;2022-08-06T04:22:08;101908.78;;;22.31;35.68
39435;BME280;30098;51.880;-0.518;2022-08-06T04:24:33;101906.03;;;22.31;35.50
39435;BME280;30098;51.880;-0.518;2022-08-06T04:27:02;101907.97;;;22.30;35.59
39435;BME280;30098;51.880;-0.518;2022-08-06T04:29:29;101909.88;;;22.30;35.52
39435;BME280;30098;51.880;-0.518;2022-08-06T04:31:58;101917.31;;;22.29;35.51
39435;BME280;30098;51.880;-0.518;2022-08-06T04:34:25;101917.31;;;22.29;35.62
39435;BME280;30098;51.880;-0.518;2022-08-06T04:36:52;101916.47;;;22.29;35.65
39435;BME280;30098;51.880;-0.518;2022-08-06T04:39:20;101817.75;;;21.66;35.49
39435;BME280;30098;51.880;-0.518;2022-08-06T04:41:47;101910.19;;;22.28;35.57
39435;BME280;30098;51.880;-0.518;2022-08-06T04:44:13;101907.44;;;22.28;35.50
39435;BME280;30098;51.880;-0.518;2022-08-06T04:46:39;101884.94;;;22.07;35.57
39435;BME280;30098;51.880;-0.518;2022-08-06T04:49:05;101920.66;;;22.26;35.68
39435;BME280;30098;51.880;-0.518;2022-08-06T04:51:30;101917.91;;;22.26;35.74
39435;BME280;30098;51.880;-0.518;2022-08-06T04:53:56;101920.66;;;22.26;35.83
39435;BME280;30098;51.880;-0.518;2022-08-06T04:56:21;101922.59;;;22.26;35.61
39435;BME280;30098;51.880;-0.518;2022-08-06T04:58:47;101928.06;;;22.26;35.79
39435;BME280;30098;51.880;-0.518;2022-08-06T05:01:13;101927.25;;;22.25;35.66
39435;BME280;30098;51.880;-0.518;2022-08-06T05:03:39;101927.84;;;22.22;35.63
39435;BME280;30098;51.880;-0.518;2022-08-06T05:06:22;101934.69;;;22.25;35.73
39435;BME280;30098;51.880;-0.518;2022-08-06T05:08:53;101931.94;;;22.25;35.61
39435;BME280;30098;51.880;-0.518;2022-08-06T05:11:26;101936.63;;;22.24;36.08
39435;BME280;30098;51.880;-0.518;2022-08-06T05:14:02;101942.91;;;22.25;35.84
39435;BME280;30098;51.880;-0.518;2022-08-06T05:16:32;101944.53;;;22.26;35.69
39435;BME280;30098;51.880;-0.518;2022-08-06T05:19:01;101941.28;;;22.24;35.87
39435;BME280;30098;51.880;-0.518;2022-08-06T05:21:31;101946.75;;;22.24;35.67
39435;BME280;30098;51.880;-0.518;2022-08-06T05:23:59;101942.38;;;22.23;35.61
39435;BME280;30098;51.880;-0.518;2022-08-06T05:26:25;101940.47;;;22.23;35.85
39435;BME280;30098;51.880;-0.518;2022-08-06T05:28:51;101921.47;;;22.08;35.84
39435;BME280;30098;51.880;-0.518;2022-08-06T05:31:31;101944.31;;;22.22;35.88
39435;BME280;30098;51.880;-0.518;2022-08-06T05:33:57;101948.69;;;22.23;35.87
39435;BME280;30098;51.880;-0.518;2022-08-06T05:36:22;101955.31;;;22.22;35.84
39435;BME280;30098;51.880;-0.518;2022-08-06T05:38:48;101854.81;;;21.64;35.75
39435;BME280;30098;51.880;-0.518;2022-08-06T05:41:13;101955.59;;;22.20;35.91
39435;BME280;30098;51.880;-0.518;2022-08-06T05:43:39;101975.63;;;22.21;35.82
39435;BME280;30098;51.880;-0.518;2022-08-06T05:46:09;101938.50;;;22.04;35.91
39435;BME280;30098;51.880;-0.518;2022-08-06T05:48:39;101983.34;;;22.19;36.03
39435;BME280;30098;51.880;-0.518;2022-08-06T05:51:46;101975.94;;;22.19;36.01
39435;BME280;30098;51.880;-0.518;2022-08-06T05:54:23;101974.28;;;22.18;35.93
39435;BME280;30098;51.880;-0.518;2022-08-06T05:57:05;101982.00;;;22.16;36.05
39435;BME280;30098;51.880;-0.518;2022-08-06T05:59:35;101984.16;;;22.19;36.01
39435;BME280;30098;51.880;-0.518;2022-08-06T06:02:03;101986.38;;;22.17;35.97
39435;BME280;30098;51.880;-0.518;2022-08-06T06:04:30;101977.63;;;22.15;35.88
39435;BME280;30098;51.880;-0.518;2022-08-06T06:06:56;101975.41;;;22.17;36.03
39435;BME280;30098;51.880;-0.518;2022-08-06T06:09:22;101980.88;;;22.17;36.11
39435;BME280;30098;51.880;-0.518;2022-08-06T06:11:48;101973.59;;;22.08;36.01
39435;BME280;30098;51.880;-0.518;2022-08-06T06:22:27;101978.44;;;22.16;35.98
39435;BME280;30098;51.880;-0.518;2022-08-06T06:25:11;101983.94;;;22.16;35.97
39435;BME280;30098;51.880;-0.518;2022-08-06T06:27:52;101988.59;;;22.15;36.01
39435;BME280;30098;51.880;-0.518;2022-08-06T06:30:26;101967.66;;;22.00;35.83
39435;BME280;30098;51.880;-0.518;2022-08-06T06:35:58;101988.59;;;22.15;36.15
39435;BME280;30098;51.880;-0.518;2022-08-06T06:38:29;101988.09;;;22.13;35.91
39435;BME280;30098;51.880;-0.518;2022-08-06T06:46:56;101990.00;;;22.13;36.00
39435;BME280;30098;51.880;-0.518;2022-08-06T06:49:46;101995.50;;;22.13;35.85
39435;BME280;30098;51.880;-0.518;2022-08-06T06:54:55;101995.78;;;22.11;35.86
39435;BME280;30098;51.880;-0.518;2022-08-06T06:57:30;101984.19;;;21.95;35.80
39435;BME280;30098;51.880;-0.518;2022-08-06T07:00:00;102010.63;;;22.10;35.97
39435;BME280;30098;51.880;-0.518;2022-08-06T07:02:27;102006.25;;;22.09;35.88
39435;BME280;30098;51.880;-0.518;2022-08-06T07:04:55;102016.91;;;22.11;35.96
39435;BME280;30098;51.880;-0.518;2022-08-06T07:07:22;102003.88;;;22.02;35.99
39435;BME280;30098;51.880;-0.518;2022-08-06T07:09:50;102013.38;;;22.10;35.92
39435;BME280;30098;51.880;-0.518;2022-08-06T07:12:19;102005.44;;;22.09;35.97
39435;BME280;30098;51.880;-0.518;2022-08-06T07:14:50;102014.47;;;22.09;36.16
39435;BME280;30098;51.880;-0.518;2022-08-06T07:17:18;102018.31;;;22.08;35.99
39435;BME280;30098;51.880;-0.518;2022-08-06T07:19:50;102011.72;;;22.09;36.01
39435;BME280;30098;51.880;-0.518;2022-08-06T07:22:18;102008.19;;;22.09;35.84
39435;BME280;30098;51.880;-0.518;2022-08-06T07:24:45;102004.59;;;22.08;35.99
39435;BME280;30098;51.880;-0.518;2022-08-06T07:27:12;102012.03;;;22.08;35.94
39435;BME280;30098;51.880;-0.518;2022-08-06T07:29:39;102009.63;;;22.01;35.97
39435;BME280;30098;51.880;-0.518;2022-08-06T07:32:07;102009.28;;;22.08;36.04
39435;BME280;30098;51.880;-0.518;2022-08-06T07:34:34;101993.31;;;21.91;35.99
39435;BME280;30098;51.880;-0.518;2022-08-06T07:37:01;102021.38;;;22.07;36.00
39435;BME280;30098;51.880;-0.518;2022-08-06T07:39:30;102015.06;;;22.06;35.93
39435;BME280;30098;51.880;-0.518;2022-08-06T07:41:58;102018.63;;;22.07;35.99
39435;BME280;30098;51.880;-0.518;2022-08-06T07:44:26;102014.25;;;22.05;36.04
39435;BME280;30098;51.880;-0.518;2022-08-06T07:46:54;102006.00;;;22.05;36.01
39435;BME280;30098;51.880;-0.518;2022-08-06T07:49:23;102008.75;;;22.05;35.96
39435;BME280;30098;51.880;-0.518;2022-08-06T07:51:50;101996.63;;;21.87;36.04
39435;BME280;30098;51.880;-0.518;2022-08-06T07:54:18;102012.59;;;22.04;36.24
39435;BME280;30098;51.880;-0.518;2022-08-06T07:56:44;102023.59;;;22.04;35.99
39435;BME280;30098;51.880;-0.518;2022-08-06T07:59:10;101994.72;;;21.88;36.09
39435;BME280;30098;51.880;-0.518;2022-08-06T08:01:37;101994.72;;;21.88;36.00
39435;BME280;30098;51.880;-0.518;2022-08-06T08:04:07;102026.31;;;22.04;36.04
39435;BME280;30098;51.880;-0.518;2022-08-06T08:06:52;102032.66;;;22.05;36.26
39435;BME280;30098;51.880;-0.518;2022-08-06T08:09:21;102027.44;;;22.03;36.10
39435;BME280;30098;51.880;-0.518;2022-08-06T08:11:48;102028.25;;;22.04;36.04
39435;BME280;30098;51.880;-0.518;2022-08-06T08:14:18;102025.53;;;22.04;36.21
39435;BME280;30098;51.880;-0.518;2022-08-06T08:16:43;101982.66;;;21.84;36.04
39435;BME280;30098;51.880;-0.518;2022-08-06T08:19:23;102025.53;;;22.04;36.20
39435;BME280;30098;51.880;-0.518;2022-08-06T08:21:51;101998.81;;;21.85;36.23
39435;BME280;30098;51.880;-0.518;2022-08-06T08:24:17;102023.06;;;22.02;36.44
39435;BME280;30098;51.880;-0.518;2022-08-06T08:26:42;102000.19;;;21.88;36.15
39435;BME280;30098;51.880;-0.518;2022-08-06T08:29:08;102021.94;;;22.03;36.21
39435;BME280;30098;51.880;-0.518;2022-08-06T08:31:35;102021.13;;;22.03;36.26
39435;BME280;30098;51.880;-0.518;2022-08-06T08:34:01;102029.38;;;22.03;36.13
39435;BME280;30098;51.880;-0.518;2022-08-06T08:36:26;102023.88;;;22.03;36.25
39435;BME280;30098;51.880;-0.518;2022-08-06T08:38:52;102023.06;;;22.02;36.18
39435;BME280;30098;51.880;-0.518;2022-08-06T08:41:25;102017.59;;;22.02;36.13
39435;BME280;30098;51.880;-0.518;2022-08-06T08:43:58;101986.25;;;21.84;36.41
39435;BME280;30098;51.880;-0.518;2022-08-06T08:46:26;101928.25;;;21.42;36.52
39435;BME280;30098;51.880;-0.518;2022-08-06T08:48:53;102011.56;;;22.00;36.23
39435;BME280;30098;51.880;-0.518;2022-08-06T08:51:21;102014.31;;;22.00;36.23
39435;BME280;30098;51.880;-0.518;2022-08-06T08:53:53;102007.72;;;22.01;36.58
39435;BME280;30098;51.880;-0.518;2022-08-06T08:56:19;102010.47;;;22.01;36.33
39435;BME280;30098;51.880;-0.518;2022-08-06T08:58:45;102020.34;;;22.02;36.32
39435;BME280;30098;51.880;-0.518;2022-08-06T09:01:12;102024.19;;;22.01;36.38
39435;BME280;30098;51.880;-0.518;2022-08-06T09:03:39;102019.81;;;22.00;36.37
39435;BME280;30098;51.880;-0.518;2022-08-06T09:06:06;102015.94;;;22.01;36.29
39435;BME280;30098;51.880;-0.518;2022-08-06T09:08:32;101928.25;;;21.42;36.39
39435;BME280;30098;51.880;-0.518;2022-08-06T09:10:58;102011.34;;;21.97;36.24
39435;BME280;30098;51.880;-0.518;2022-08-06T09:13:26;102014.31;;;22.00;36.22
39435;BME280;30098;51.880;-0.518;2022-08-06T09:15:52;102018.97;;;22.00;36.30
39435;BME280;30098;51.880;-0.518;2022-08-06T09:18:19;101998.78;;;21.91;36.25
39435;BME280;30098;51.880;-0.518;2022-08-06T09:20:45;102006.09;;;22.00;36.31
39435;BME280;30098;51.880;-0.518;2022-08-06T09:23:11;102017.06;;;22.00;36.33
39435;BME280;30098;51.880;-0.518;2022-08-06T09:25:42;102011.56;;;22.00;36.27
39435;BME280;30098;51.880;-0.518;2022-08-06T09:28:12;102020.59;;;22.01;36.36
39435;BME280;30098;51.880;-0.518;2022-08-06T09:33:33;101927.72;;;21.40;36.46
39435;BME280;30098;51.880;-0.518;2022-08-06T09:36:06;102022.00;;;21.98;36.43
39435;BME280;30098;51.880;-0.518;2022-08-06T09:38:47;102035.44;;;22.00;36.47
39435;BME280;30098;51.880;-0.518;2022-08-06T09:41:13;102024.75;;;21.98;36.39
39435;BME280;30098;51.880;-0.518;2022-08-06T09:43:39;102031.06;;;21.99;36.50
39435;BME280;30098;51.880;-0.518;2022-08-06T09:46:06;102023.13;;;21.97;36.26
39435;BME280;30098;51.880;-0.518;2022-08-06T09:48:33;102025.84;;;21.97;36.42
39435;BME280;30098;51.880;-0.518;2022-08-06T09:50:59;102023.94;;;21.98;36.38
39435;BME280;30098;51.880;-0.518;2022-08-06T09:53:25;102019.56;;;21.97;36.30
39435;BME280;30098;51.880;-0.518;2022-08-06T09:55:54;102030.53;;;21.97;36.48
39435;BME280;30098;51.880;-0.518;2022-08-06T09:58:34;102030.25;;;21.98;36.33
39435;BME280;30098;51.880;-0.518;2022-08-06T10:01:23;102026.69;;;21.98;36.38
39435;BME280;30098;51.880;-0.518;2022-08-06T10:03:50;102021.22;;;21.98;36.51
39435;BME280;30098;51.880;-0.518;2022-08-06T10:06:17;102015.81;;;21.87;36.44
39435;BME280;30098;51.880;-0.518;2022-08-06T10:08:50;102033.00;;;21.98;36.50
39435;BME280;30098;51.880;-0.518;2022-08-06T10:11:32;102031.34;;;21.97;36.40
39435;BME280;30098;51.880;-0.518;2022-08-06T10:13:58;102022.31;;;21.97;36.36
39435;BME280;30098;51.880;-0.518;2022-08-06T10:16:23;102016.28;;;21.95;36.36
39435;BME280;30098;51.880;-0.518;2022-08-06T10:18:53;102025.34;;;21.95;36.48
39435;BME280;30098;51.880;-0.518;2022-08-06T10:21:21;102017.13;;;21.95;36.46
39435;BME280;30098;51.880;-0.518;2022-08-06T10:23:53;102013.53;;;21.95;36.28
39435;BME280;30098;51.880;-0.518;2022-08-06T10:26:24;102009.75;;;21.91;36.44
39435;BME280;30098;51.880;-0.518;2022-08-06T10:28:51;102019.88;;;21.95;36.45
39435;BME280;30098;51.880;-0.518;2022-08-06T10:31:19;102010.81;;;21.95;36.51
39435;BME280;30098;51.880;-0.518;2022-08-06T10:33:54;102008.34;;;21.93;36.52
39435;BME280;30098;51.880;-0.518;2022-08-06T10:36:26;102013.53;;;21.95;36.42
39435;BME280;30098;51.880;-0.518;2022-08-06T10:38:54;102011.41;;;21.92;36.33
39435;BME280;30098;51.880;-0.518;2022-08-06T10:41:21;102018.00;;;21.91;36.63
39435;BME280;30098;51.880;-0.518;2022-08-06T10:43:48;102013.53;;;21.95;36.52
39435;BME280;30098;51.880;-0.518;2022-08-06T10:46:14;102010.81;;;21.95;36.61
39435;BME280;30098;51.880;-0.518;2022-08-06T10:48:46;102016.28;;;21.95;36.36
39435;BME280;30098;51.880;-0.518;2022-08-06T10:51:15;102019.03;;;21.95;36.52
39435;BME280;30098;51.880;-0.518;2022-08-06T10:53:43;102011.91;;;21.94;36.57
39435;BME280;30098;51.880;-0.518;2022-08-06T10:56:12;102005.31;;;21.95;36.33
39435;BME280;30098;51.880;-0.518;2022-08-06T10:58:39;102009.16;;;21.94;36.48
39435;BME280;30098;51.880;-0.518;2022-08-06T11:01:33;102013.53;;;21.95;36.36
39435;BME280;30098;51.880;-0.518;2022-08-06T11:04:18;102008.34;;;21.93;36.36
39435;BME280;30098;51.880;-0.518;2022-08-06T11:14:29;102002.03;;;21.93;36.39
39435;BME280;30098;51.880;-0.518;2022-08-06T11:16:59;101994.66;;;21.93;36.37
39435;BME280;30098;51.880;-0.518;2022-08-06T11:19:56;102002.88;;;21.93;36.52
39435;BME280;30098;51.880;-0.518;2022-08-06T11:24:58;102002.03;;;21.93;36.38
39435;BME280;30098;51.880;-0.518;2022-08-06T11:27:55;101996.56;;;21.93;36.30
39435;BME280;30098;51.880;-0.518;2022-08-06T11:33:06;101988.69;;;21.86;36.49
39435;BME280;30098;51.880;-0.518;2022-08-06T11:37:58;101995.75;;;21.92;36.43
39435;BME280;30098;51.880;-0.518;2022-08-06T11:40:24;101993.31;;;21.91;36.47
39435;BME280;30098;51.880;-0.518;2022-08-06T11:42:50;101993.31;;;21.91;36.38
39435;BME280;30098;51.880;-0.518;2022-08-06T11:45:16;101996.03;;;21.91;36.31
39435;BME280;30098;51.880;-0.518;2022-08-06T11:48:05;101978.47;;;21.92;36.41
39435;BME280;30098;51.880;-0.518;2022-08-06T11:50:31;101982.34;;;21.91;36.36
39435;BME280;30098;51.880;-0.518;2022-08-06T11:52:56;101983.13;;;21.91;36.44
39435;BME280;30098;51.880;-0.518;2022-08-06T11:55:22;101949.63;;;21.70;36.47
39435;BME280;30098;51.880;-0.518;2022-08-06T11:58:15;101978.75;;;21.90;36.36
39435;BME280;30098;51.880;-0.518;2022-08-06T12:00:54;101982.34;;;21.91;36.31
39435;BME280;30098;51.880;-0.518;2022-08-06T12:03:38;101976.84;;;21.91;36.18
39435;BME280;30098;51.880;-0.518;2022-08-06T12:06:21;101979.06;;;21.88;36.38
39435;BME280;30098;51.880;-0.518;2022-08-06T12:11:31;101977.94;;;21.89;36.35
39435;BME280;30098;51.880;-0.518;2022-08-06T12:13:58;101973.25;;;21.90;36.25
39435;BME280;30098;51.880;-0.518;2022-08-06T12:16:29;101959.69;;;21.80;36.30
39435;BME280;30098;51.880;-0.518;2022-08-06T12:18:55;101874.94;;;21.30;36.25
39435;BME280;30098;51.880;-0.518;2022-08-06T12:21:22;101963.41;;;21.89;36.27
39435;BME280;30098;51.880;-0.518;2022-08-06T12:23:51;101964.22;;;21.89;36.20
39435;BME280;30098;51.880;-0.518;2022-08-06T12:26:19;101942.94;;;21.81;36.35
39435;BME280;30098;51.880;-0.518;2022-08-06T12:28:46;101949.69;;;21.89;36.30
39435;BME280;30098;51.880;-0.518;2022-08-06T12:31:12;101943.97;;;21.85;36.26
39435;BME280;30098;51.880;-0.518;2022-08-06T12:33:42;101952.41;;;21.89;36.21
39435;BME280;30098;51.880;-0.518;2022-08-06T12:36:08;101935.22;;;21.83;36.38
39435;BME280;30098;51.880;-0.518;2022-08-06T12:38:34;101945.31;;;21.88;36.32
39435;BME280;30098;51.880;-0.518;2022-08-06T12:41:04;101939.00;;;21.87;36.20
39435;BME280;30098;51.880;-0.518;2022-08-06T12:43:31;101940.13;;;21.86;36.27
39435;BME280;30098;51.880;-0.518;2022-08-06T12:46:01;101951.63;;;21.88;36.18
39435;BME280;30098;51.880;-0.518;2022-08-06T12:48:27;101944.19;;;21.89;36.14
39435;BME280;30098;51.880;-0.518;2022-08-06T12:51:06;101945.03;;;21.89;36.03
39435;BME280;30098;51.880;-0.518;2022-08-06T12:53:32;101948.06;;;21.88;36.21
39435;BME280;30098;51.880;-0.518;2022-08-06T12:55:58;101946.13;;;21.88;36.13
39435;BME280;30098;51.880;-0.518;2022-08-06T12:58:29;101946.13;;;21.88;36.17
39435;BME280;30098;51.880;-0.518;2022-08-06T13:00:58;101919.13;;;21.77;36.13
39435;BME280;30098;51.880;-0.518;2022-08-06T13:03:24;101925.91;;;21.84;36.20
39435;BME280;30098;51.880;-0.518;2022-08-06T13:05:52;101931.59;;;21.88;36.25
39435;BME280;30098;51.880;-0.518;2022-08-06T13:08:20;101935.97;;;21.89;36.13
39435;BME280;30098;51.880;-0.518;2022-08-06T13:10:50;101934.34;;;21.88;36.17
39435;BME280;30098;51.880;-0.518;2022-08-06T13:13:17;101910.31;;;21.80;36.33
39435;BME280;30098;51.880;-0.518;2022-08-06T13:15:58;101912.41;;;21.88;36.02
39435;BME280;30098;51.880;-0.518;2022-08-06T13:18:25;101925.28;;;21.87;36.11
39435;BME280;30098;51.880;-0.518;2022-08-06T13:20:50;101921.44;;;21.88;36.03
39435;BME280;30098;51.880;-0.518;2022-08-06T13:23:30;101917.06;;;21.87;36.18
39435;BME280;30098;51.880;-0.518;2022-08-06T13:25:56;101919.81;;;21.87;36.31
39435;BME280;30098;51.880;-0.518;2022-08-06T13:28:23;101912.69;;;21.86;36.07
39435;BME280;30098;51.880;-0.518;2022-08-06T13:30:49;101922.53;;;21.87;36.18
39435;BME280;30098;51.880;-0.518;2022-08-06T13:33:21;101915.41;;;21.86;36.25
39435;BME280;30098;51.880;-0.518;2022-08-06T13:35:51;101908.59;;;21.84;36.13
39435;BME280;30098;51.880;-0.518;2022-08-06T13:40:53;101906.91;;;21.88;36.00
39435;BME280;30098;51.880;-0.518;2022-08-06T13:43:19;101910.78;;;21.87;36.23
39435;BME280;30098;51.880;-0.518;2022-08-06T13:45:45;101903.34;;;21.87;36.20
39435;BME280;30098;51.880;-0.518;2022-08-06T13:48:11;101903.34;;;21.87;36.20